x

Milton Blue Hill Observ Weather Station

3:56 - Fri 22nd Sep 2017 All times are EDT. -4 hours from GMT.

  • Wind
    17mph, 36mph gusts
  • Luft Temp 57°f
  • Sea Pressure 1015.2mb
  • Milton Blue Hill Observ
  • Milton Blue Hill Observ

More Historic Weather Station data

Upgrade to MSW Pro to gain access to the past 30 days of data for over 8000 Wavebouys and Weather Stations around the globe.

Join

Comparision Forecast

View Surf forecast
   
Fr 09/22 3:56 17 36 mph 1015.2mb 57f
2:56 18 36 mph 1015.2mb 58f
1:56 22 35 mph 1015.9mb 59f
12:56 23 38 mph 1016.3mb 60f
Do 09/21 11:56 23 36 mph 1015.9mb 63f
10:56 23 33 mph 1016.6mb 63f
9:56 18 33 mph 1016.6mb 63f
8:56 14 25 mph 1016.6mb 64f
7:56 15 24 mph 1016.6mb 65f
6:56 18 31 mph 1015.9mb 65f
5:56 14 29 mph 1015.9mb 66f
4:56 16 30 mph 1015.9mb 68f
3:56 20 40 mph 1015.6mb 69f
2:56 17 40 mph 1015.9mb 68f
1:56 22 41 mph 1015.9mb 66f
12:56 18 35 mph 1016.3mb 68f
11:56 25 39 mph 1016.3mb 68f
10:56 20 40 mph 1016.3mb 66f
9:56 18 37 mph 1015.6mb 66f
8:56 16 35 mph 1015.2mb 66f
7:56 22 39 mph 1014.9mb 66f
6:56 21 32 mph 1013.9mb 66f
5:56 21 41 mph 1012.9mb 67f
4:56 23 37 mph 1012.5mb 68f
3:56 20 35 mph 1011.9mb 68f
2:56 17 38 mph 1011.9mb 69f
1:56 18 35 mph 1011.9mb 69f
12:56 23 33 mph 1011.9mb 69f
Mi 09/20 11:56 17 32 mph 1011.9mb 69f
10:56 20 30 mph 1011.9mb 69f
9:56 15 27 mph 1011.9mb 69f
8:56 13 23 mph 1011.5mb 68f
7:56 14 29 mph 1011.9mb 67f
6:56 16 36 mph 1011.5mb 67f
5:56 21 36 mph 1011.2mb 66f
4:56 18 32 mph 1011.2mb 66f
3:56 16 30 mph 1010.8mb 66f
2:56 20 32 mph 1010.8mb 65f
1:56 25 36 mph 1010.5mb 65f
12:56 21 38 mph 1010.8mb 65f
11:56 27 39 mph 1011.2mb 65f
10:56 17 37 mph 1011.5mb 65f
9:56 23 36 mph 1011.9mb 65f
8:56 16 32 mph 1011.9mb 64f
7:56 18 35 mph 1011.9mb 64f
6:56 15 29 mph 1011.9mb 64f
5:56 15 24 mph 1011.9mb 64f
4:56 18 31 mph 1011.5mb 63f
3:56 17 28 mph 1011.9mb 63f
2:56 14 27 mph 1012.9mb 64f
1:56 13 24 mph 1013.2mb 62f
12:56 17 29 mph 1013.9mb 62f
Di 09/19 11:56 16 28 mph 1013.9mb 62f
10:56 16 27 mph 1014.9mb 62f
9:56 18 29 mph 1015.2mb 62f
8:56 16 25 mph 1015.2mb 62f
7:56 15 27 mph 1015.2mb 62f
6:56 14 24 mph 1015.6mb 63f
5:56 14 24 mph 1015.6mb 62f
4:56 15 24 mph 1016.3mb 62f
3:56 16 27 mph 1016.6mb 62f
2:56 17 27 mph 1016.6mb 62f
1:56 17 29 mph 1017.6mb 62f
12:56 20 28 mph 1018.3mb 63f
11:56 15
mph
1019.3mb 63f
10:56 14
mph
1019.3mb 63f
9:56 12 20 mph 1019.6mb 62f
8:56 14 24 mph 1019.6mb 62f
7:56 12 16 mph 1019.6mb 63f
6:56 13 20 mph 1019.6mb 62f
5:56 13 21 mph 1019.3mb 62f
4:56 14 22 mph 1019.6mb 62f
3:56 8 18 mph 1020mb 62f
2:56 12
mph
1020.3mb 62f
1:56 9 18 mph 1020.7mb 62f
12:56 9 18 mph 1021mb 62f
Mo 09/18 11:56 10 18 mph 1021mb 63f
10:56 12
mph
1021.7mb 63f
9:56 12 18 mph 1021.7mb 62f
8:56 10
mph
1022mb 63f
7:56 10
mph
1021.3mb 63f
6:56 9
mph
1021mb 63f
5:56 8
mph
1021mb 64f
4:56 6
mph
1021mb 66f
3:56 6
mph
1021.3mb 66f
2:56 9
mph
1021.7mb 66f
1:56 8
mph
1021.7mb 65f
12:56 7
mph
1022mb 67f
11:56 8
mph
1022mb 66f
10:56 8
mph
1022mb 66f
9:56 7
mph
1022mb 67f
8:56 6
mph
1021.7mb 67f